Time;durP1;ratioP1;P1;durP2;ratioP2;P2;SDS_P1;SDS_P2;PMS_P1;PMS_P2;Temp;Humidity;BMP_temperature;BMP_pressure;BME280_temperature;BME280_humidity;BME280_pressure;Samples;Min_cycle;Max_cycle;Signal;HPM_P1;HPM_P2
2022/01/11 00:02:05;;;;;;;94.50;43.70;;;;;;;;;;5093450;28;20028;-65
2022/01/11 00:04:32;;;;;;;100.78;45.88;;;;;;;;;;5093711;28;20040;-65
2022/01/11 00:07:01;;;;;;;98.65;45.63;;;;;;;;;;5093751;28;20028;-64
2022/01/11 00:09:37;;;;;;;96.18;45.50;;;;;;;;;;5093724;28;20106;-66
2022/01/11 00:12:06;;;;;;;83.28;41.58;;;;;;;;;;5086605;28;20123;-64
2022/01/11 00:14:32;;;;;;;83.78;40.03;;;;;;;;;;5075819;28;20122;-65
2022/01/11 00:16:59;;;;;;;83.72;41.65;;;;;;;;;;5074720;28;20394;-64
2022/01/11 00:19:28;;;;;;;96.90;45.42;;;;;;;;;;5092669;28;20023;-64
2022/01/11 00:21:54;;;;;;;98.82;45.00;;;;;;;;;;5092535;28;20073;-66
2022/01/11 00:24:28;;;;;;;91.22;45.38;;;;;;;;;;5071560;28;20044;-64
2022/01/11 00:26:54;;;;;;;98.60;44.72;;;;;;;;;;5074277;28;20440;-66
2022/01/11 00:29:20;;;;;;;99.00;44.95;;;;;;;;;;5090165;28;20052;-65
2022/01/11 00:31:48;;;;;;;88.03;43.20;;;;;;;;;;5075229;28;20066;-66
2022/01/11 00:34:17;;;;;;;93.03;45.97;;;;;;;;;;5093634;28;20032;-65
2022/01/11 00:36:43;;;;;;;109.70;50.53;;;;;;;;;;5093247;28;20044;-65
2022/01/11 00:39:10;;;;;;;106.13;48.75;;;;;;;;;;5093614;28;20031;-65
2022/01/11 00:41:40;;;;;;;102.50;47.63;;;;;;;;;;5093630;28;20035;-64
2022/01/11 00:44:07;;;;;;;97.80;46.85;;;;;;;;;;5093488;28;20036;-64
2022/01/11 00:46:34;;;;;;;91.07;44.47;;;;;;;;;;5093508;28;20491;-64
2022/01/11 00:49:00;;;;;;;91.05;43.17;;;;;;;;;;5093470;28;20480;-64
2022/01/11 00:51:27;;;;;;;85.70;41.63;;;;;;;;;;5075242;28;20024;-64
2022/01/11 00:53:53;;;;;;;89.90;42.33;;;;;;;;;;5093454;28;20143;-64
2022/01/11 00:56:20;;;;;;;101.03;46.08;;;;;;;;;;5092765;28;20032;-64
2022/01/11 00:58:47;;;;;;;103.70;44.72;;;;;;;;;;5093317;28;20070;-64
2022/01/11 01:01:14;;;;;;;91.53;42.80;;;;;;;;;;5075111;28;20388;-63
2022/01/11 01:03:40;;;;;;;82.45;39.60;;;;;;;;;;5093276;28;20094;-64
2022/01/11 01:06:06;;;;;;;78.63;39.22;;;;;;;;;;5093492;28;20417;-64
2022/01/11 01:08:33;;;;;;;79.72;37.92;;;;;;;;;;5075098;28;20029;-64
2022/01/11 01:11:04;;;;;;;82.53;39.20;;;;;;;;;;5093185;28;20031;-63
2022/01/11 01:13:30;;;;;;;79.15;38.92;;;;;;;;;;5093205;28;20028;-63
2022/01/11 01:15:57;;;;;;;74.85;36.85;;;;;;;;;;5092865;28;20506;-65
2022/01/11 01:18:25;;;;;;;71.43;34.40;;;;;;;;;;5074969;28;20050;-64
2022/01/11 01:20:52;;;;;;;69.97;35.65;;;;;;;;;;5093157;28;20095;-65
2022/01/11 01:23:19;;;;;;;73.40;35.25;;;;;;;;;;5093063;28;20025;-64
2022/01/11 01:25:45;;;;;;;70.85;33.55;;;;;;;;;;5093079;28;20047;-64
2022/01/11 01:28:12;;;;;;;68.13;33.05;;;;;;;;;;5093049;28;20546;-64
2022/01/11 01:30:39;;;;;;;70.10;32.88;;;;;;;;;;5074822;28;20024;-64
2022/01/11 01:33:05;;;;;;;69.28;31.95;;;;;;;;;;5093037;28;20039;-64
2022/01/11 01:35:44;;;;;;;65.35;31.80;;;;;;;;;;5074592;28;20020;-63
2022/01/11 01:38:11;;;;;;;74.15;33.97;;;;;;;;;;5093032;28;20531;-63
2022/01/11 01:40:43;;;;;;;79.95;34.38;;;;;;;;;;5074708;28;20024;-64
2022/01/11 01:43:10;;;;;;;;;;;;;;;;;;5093373;28;20028;-64
2022/01/11 01:45:37;;;;;;;56.58;28.20;;;;;;;;;;5092908;28;20393;-65
2022/01/11 01:48:04;;;;;;;62.83;29.67;;;;;;;;;;5093064;28;20039;-64
2022/01/11 01:50:30;;;;;;;62.58;29.50;;;;;;;;;;5074635;28;20078;-65
2022/01/11 01:52:57;;;;;;;52.05;27.42;;;;;;;;;;5074695;28;20536;-65
2022/01/11 01:55:24;;;;;;;53.47;27.35;;;;;;;;;;5092801;28;20032;-65
2022/01/11 01:57:51;;;;;;;53.35;26.85;;;;;;;;;;5092732;28;20119;-65
2022/01/11 02:00:18;;;;;;;55.08;25.45;;;;;;;;;;5092741;28;20074;-65
2022/01/11 02:02:45;;;;;;;47.75;26.17;;;;;;;;;;5092717;28;20032;-66
2022/01/11 02:05:11;;;;;;;52.17;26.10;;;;;;;;;;5092700;28;20468;-66
2022/01/11 02:07:38;;;;;;;52.58;26.20;;;;;;;;;;5095251;28;20050;-65
2022/01/11 02:10:05;;;;;;;56.25;27.15;;;;;;;;;;5096397;28;20032;-65
2022/01/11 02:12:31;;;;;;;48.90;26.00;;;;;;;;;;5096401;28;20016;-65
2022/01/11 02:14:58;;;;;;;53.40;26.38;;;;;;;;;;5096299;28;20424;-65
2022/01/11 02:17:28;;;;;;;49.38;25.35;;;;;;;;;;5078052;28;20027;-65
2022/01/11 02:19:55;;;;;;;58.28;28.02;;;;;;;;;;5096233;28;20024;-65
2022/01/11 02:22:22;;;;;;;53.28;26.75;;;;;;;;;;5095908;28;20432;-64
2022/01/11 02:24:48;;;;;;;55.90;28.13;;;;;;;;;;5096181;28;20112;-65
2022/01/11 02:27:14;;;;;;;52.65;25.52;;;;;;;;;;5096417;28;20119;-64
2022/01/11 02:29:40;;;;;;;53.10;27.17;;;;;;;;;;5077565;28;20111;-64
2022/01/11 02:32:08;;;;;;;53.95;27.02;;;;;;;;;;5096037;28;20027;-63
2022/01/11 02:34:34;;;;;;;53.60;25.25;;;;;;;;;;5077875;28;20031;-63
2022/01/11 02:37:00;;;;;;;51.28;25.30;;;;;;;;;;5095431;28;20058;-63
2022/01/11 02:39:26;;;;;;;50.53;25.63;;;;;;;;;;5077738;28;20111;-64
2022/01/11 02:41:54;;;;;;;51.22;25.85;;;;;;;;;;5077677;28;20024;-64
2022/01/11 02:44:20;;;;;;;51.47;25.30;;;;;;;;;;5095817;28;20046;-63
2022/01/11 02:46:46;;;;;;;53.67;25.08;;;;;;;;;;5095732;28;20039;-63
2022/01/11 02:49:13;;;;;;;51.50;24.35;;;;;;;;;;5095726;28;20464;-64
2022/01/11 02:51:39;;;;;;;52.40;25.38;;;;;;;;;;5077450;28;20090;-63
2022/01/11 02:54:06;;;;;;;55.33;24.92;;;;;;;;;;5077452;28;20051;-63
2022/01/11 02:56:32;;;;;;;53.25;25.90;;;;;;;;;;5095597;28;20028;-64
2022/01/11 02:58:59;;;;;;;52.83;24.77;;;;;;;;;;5095528;28;20025;-66
2022/01/11 03:01:26;;;;;;;46.60;24.20;;;;;;;;;;5095186;28;20111;-64
2022/01/11 03:03:52;;;;;;;45.03;23.25;;;;;;;;;;5095433;28;20063;-64
2022/01/11 03:06:18;;;;;;;47.97;23.48;;;;;;;;;;5095418;28;20028;-64
2022/01/11 03:08:46;;;;;;;47.85;22.83;;;;;;;;;;5077155;28;20464;-64
2022/01/11 03:11:14;;;;;;;45.72;23.52;;;;;;;;;;5095348;28;20024;-64
2022/01/11 03:13:43;;;;;;;48.05;23.55;;;;;;;;;;5076842;28;20052;-65
2022/01/11 03:16:09;;;;;;;46.00;23.40;;;;;;;;;;5076996;28;20506;-64
2022/01/11 03:18:36;;;;;;;47.47;23.02;;;;;;;;;;5094841;28;20028;-64
2022/01/11 03:21:03;;;;;;;45.13;22.88;;;;;;;;;;5095128;28;20102;-66
2022/01/11 03:23:29;;;;;;;46.53;22.33;;;;;;;;;;5095064;28;20066;-65
2022/01/11 03:25:56;;;;;;;46.55;24.65;;;;;;;;;;5094972;28;20039;-65
2022/01/11 03:28:23;;;;;;;47.97;23.35;;;;;;;;;;5094964;28;20059;-64
2022/01/11 03:30:50;;;;;;;41.30;22.27;;;;;;;;;;5094922;28;20079;-64
2022/01/11 03:33:16;;;;;;;44.72;22.40;;;;;;;;;;5095178;28;20123;-64
2022/01/11 03:35:42;;;;;;;44.35;23.02;;;;;;;;;;5094646;28;20089;-63
2022/01/11 03:38:10;;;;;;;47.20;22.17;;;;;;;;;;5076584;28;20066;-64
2022/01/11 03:40:36;;;;;;;45.75;22.63;;;;;;;;;;5094750;28;20027;-64
2022/01/11 03:43:03;;;;;;;44.35;22.35;;;;;;;;;;5094911;28;20119;-65
2022/01/11 03:45:29;;;;;;;44.97;22.33;;;;;;;;;;5094433;28;20531;-63
2022/01/11 03:47:56;;;;;;;38.28;20.85;;;;;;;;;;5094575;28;20055;-63
2022/01/11 03:50:23;;;;;;;37.08;20.30;;;;;;;;;;5094526;28;20020;-64
2022/01/11 03:52:58;;;;;;;39.58;21.55;;;;;;;;;;5076270;28;20020;-64
2022/01/11 03:55:43;;;;;;;42.88;21.67;;;;;;;;;;5094500;28;20023;-64
2022/01/11 03:58:10;;;;;;;40.15;20.08;;;;;;;;;;5094457;28;20460;-64
2022/01/11 04:00:36;;;;;;;36.85;20.00;;;;;;;;;;5094331;28;20036;-64
2022/01/11 04:03:04;;;;;;;43.75;20.52;;;;;;;;;;5094160;28;20107;-64
2022/01/11 04:05:30;;;;;;;46.75;21.60;;;;;;;;;;5094312;28;20024;-63
2022/01/11 04:07:56;;;;;;;41.95;21.13;;;;;;;;;;5075931;28;20361;-63
2022/01/11 04:10:23;;;;;;;47.33;20.80;;;;;;;;;;5094138;28;20111;-63
2022/01/11 04:12:50;;;;;;;42.60;21.65;;;;;;;;;;5094087;28;20032;-64
2022/01/11 04:15:17;;;;;;;38.08;20.10;;;;;;;;;;5094128;28;20032;-64
2022/01/11 04:17:43;;;;;;;43.17;21.50;;;;;;;;;;5075861;28;20020;-64
2022/01/11 04:20:09;;;;;;;41.55;21.25;;;;;;;;;;5093975;28;20516;-64
2022/01/11 04:22:36;;;;;;;48.60;21.58;;;;;;;;;;5093914;28;20048;-64
2022/01/11 04:25:02;;;;;;;47.35;20.55;;;;;;;;;;5093886;28;20179;-65
2022/01/11 04:27:28;;;;;;;43.80;20.98;;;;;;;;;;5093800;28;20051;-64
2022/01/11 04:29:55;;;;;;;38.97;19.98;;;;;;;;;;5093022;28;20035;-64
2022/01/11 04:32:21;;;;;;;40.20;20.23;;;;;;;;;;5093680;28;20035;-63
2022/01/11 04:34:47;;;;;;;45.53;21.13;;;;;;;;;;5075537;28;20118;-63
2022/01/11 04:37:13;;;;;;;48.17;23.70;;;;;;;;;;5093219;28;20044;-65
2022/01/11 04:39:40;;;;;;;45.38;21.00;;;;;;;;;;5075406;28;20024;-64
2022/01/11 04:42:06;;;;;;;49.20;23.45;;;;;;;;;;5093563;28;20131;-65
2022/01/11 04:44:32;;;;;;;44.30;21.90;;;;;;;;;;5093509;28;20165;-64
2022/01/11 04:46:58;;;;;;;45.38;21.48;;;;;;;;;;5093586;28;20039;-64
2022/01/11 04:49:25;;;;;;;46.50;23.05;;;;;;;;;;5075291;28;20498;-64
2022/01/11 04:51:52;;;;;;;44.15;21.80;;;;;;;;;;5093407;28;20131;-64
2022/01/11 04:54:18;;;;;;;47.65;23.02;;;;;;;;;;5093487;28;20441;-63
2022/01/11 04:56:45;;;;;;;43.25;20.77;;;;;;;;;;5093429;28;20505;-64
2022/01/11 04:59:11;;;;;;;43.92;22.42;;;;;;;;;;5075190;28;20059;-65
2022/01/11 05:01:37;;;;;;;43.25;21.65;;;;;;;;;;5093354;28;20111;-65
2022/01/11 05:04:04;;;;;;;43.63;21.10;;;;;;;;;;5093290;28;20114;-64
2022/01/11 05:06:30;;;;;;;38.90;19.80;;;;;;;;;;5093283;28;20028;-66
2022/01/11 05:08:56;;;;;;;42.92;21.88;;;;;;;;;;5075100;28;20051;-65
2022/01/11 05:11:22;;;;;;;43.05;21.50;;;;;;;;;;5093199;28;20031;-65
2022/01/11 05:13:49;;;;;;;47.67;21.73;;;;;;;;;;5093198;28;20047;-66
2022/01/11 05:16:15;;;;;;;46.05;21.52;;;;;;;;;;5093482;28;20107;-66
2022/01/11 05:18:42;;;;;;;39.50;20.27;;;;;;;;;;5092875;28;20383;-65
2022/01/11 05:21:08;;;;;;;41.25;19.85;;;;;;;;;;5093123;28;20157;-64
2022/01/11 05:23:34;;;;;;;41.05;20.77;;;;;;;;;;5074823;28;20073;-66
2022/01/11 05:26:01;;;;;;;43.08;21.75;;;;;;;;;;5093107;28;20115;-64
2022/01/11 05:28:28;;;;;;;40.42;20.95;;;;;;;;;;5093040;28;20115;-64
2022/01/11 05:30:54;;;;;;;42.13;20.85;;;;;;;;;;5074601;28;20107;-65
2022/01/11 05:33:20;;;;;;;42.22;20.83;;;;;;;;;;5092960;28;20028;-66
2022/01/11 05:35:47;;;;;;;44.45;21.55;;;;;;;;;;5092747;28;20488;-65
2022/01/11 05:38:13;;;;;;;44.47;21.25;;;;;;;;;;5093037;28;20036;-66
2022/01/11 05:40:40;;;;;;;41.70;20.75;;;;;;;;;;5092952;28;20484;-66
2022/01/11 05:43:06;;;;;;;44.05;20.75;;;;;;;;;;5096443;28;20415;-66
2022/01/11 05:45:33;;;;;;;38.85;20.42;;;;;;;;;;5096991;28;20028;-64
2022/01/11 05:48:02;;;;;;;40.88;21.38;;;;;;;;;;5096908;28;20024;-63
2022/01/11 05:50:28;;;;;;;44.97;21.10;;;;;;;;;;5097135;28;20360;-64
2022/01/11 05:52:54;;;;;;;47.28;23.27;;;;;;;;;;5096806;28;20039;-64
2022/01/11 05:55:20;;;;;;;42.22;20.67;;;;;;;;;;5096497;28;20120;-65
2022/01/11 05:57:47;;;;;;;42.22;20.70;;;;;;;;;;5096668;28;20099;-66
2022/01/11 06:00:15;;;;;;;46.17;22.20;;;;;;;;;;5096667;28;20020;-65
2022/01/11 06:02:44;;;;;;;43.40;21.02;;;;;;;;;;5078374;28;20020;-64
2022/01/11 06:05:10;;;;;;;37.95;19.75;;;;;;;;;;5096587;28;20122;-65
2022/01/11 06:07:37;;;;;;;41.47;20.52;;;;;;;;;;5096494;28;20024;-65
2022/01/11 06:10:04;;;;;;;44.35;21.38;;;;;;;;;;5096470;28;20114;-65
2022/01/11 06:12:30;;;;;;;39.45;20.05;;;;;;;;;;5096407;28;20032;-64
2022/01/11 06:14:56;;;;;;;47.40;22.95;;;;;;;;;;5096436;28;20028;-65
2022/01/11 06:17:23;;;;;;;48.53;22.48;;;;;;;;;;5096590;28;20031;-64
2022/01/11 06:19:49;;;;;;;52.10;24.35;;;;;;;;;;5077977;28;20424;-65
2022/01/11 06:22:15;;;;;;;49.40;23.88;;;;;;;;;;5077985;28;20066;-64
2022/01/11 06:24:41;;;;;;;45.15;21.75;;;;;;;;;;5095931;28;20126;-64
2022/01/11 06:27:07;;;;;;;48.40;22.55;;;;;;;;;;5077605;28;20039;-65
2022/01/11 06:29:33;;;;;;;54.75;26.48;;;;;;;;;;5077898;28;20384;-66
2022/01/11 06:32:00;;;;;;;51.72;23.30;;;;;;;;;;5096261;28;20024;-66
2022/01/11 06:34:26;;;;;;;49.88;23.42;;;;;;;;;;5077792;28;20036;-65
2022/01/11 06:36:52;;;;;;;50.63;22.65;;;;;;;;;;5095999;28;20100;-64
2022/01/11 06:39:18;;;;;;;55.05;23.98;;;;;;;;;;5095853;28;20020;-66
2022/01/11 06:41:44;;;;;;;43.70;21.25;;;;;;;;;;5095789;28;20059;-64
2022/01/11 06:44:11;;;;;;;50.22;23.70;;;;;;;;;;5088285;28;20067;-65
2022/01/11 06:46:37;;;;;;;51.92;24.73;;;;;;;;;;5088091;28;20131;-65
2022/01/11 06:49:04;;;;;;;49.05;23.25;;;;;;;;;;5095617;28;20051;-65
2022/01/11 06:51:31;;;;;;;58.80;25.90;;;;;;;;;;5095515;28;20030;-66
2022/01/11 06:53:57;;;;;;;46.55;22.77;;;;;;;;;;5076302;28;20481;-63
2022/01/11 06:56:24;;;;;;;43.08;21.15;;;;;;;;;;5095454;28;20028;-63
2022/01/11 06:58:50;;;;;;;38.95;21.55;;;;;;;;;;5095383;28;20028;-66
2022/01/11 07:01:16;;;;;;;37.75;19.83;;;;;;;;;;5095382;28;20070;-64
2022/01/11 07:03:42;;;;;;;42.40;20.27;;;;;;;;;;5076991;28;20028;-64
2022/01/11 07:06:09;;;;;;;45.35;21.40;;;;;;;;;;5095301;28;20115;-65
2022/01/11 07:08:35;;;;;;;43.53;22.73;;;;;;;;;;5094940;28;20455;-64
2022/01/11 07:11:01;;;;;;;38.92;20.80;;;;;;;;;;5077031;28;20041;-64
2022/01/11 07:13:27;;;;;;;44.97;22.15;;;;;;;;;;5076842;28;20547;-64
2022/01/11 07:15:53;;;;;;;65.22;28.85;;;;;;;;;;5095394;28;20095;-64
2022/01/11 07:18:20;;;;;;;61.53;28.05;;;;;;;;;;5076720;28;20074;-64
2022/01/11 07:20:46;;;;;;;82.72;33.67;;;;;;;;;;5076758;28;20085;-64
2022/01/11 07:23:13;;;;;;;73.25;31.00;;;;;;;;;;5076784;28;20057;-65
2022/01/11 07:25:39;;;;;;;94.78;39.20;;;;;;;;;;5094857;28;20028;-65
2022/01/11 07:28:06;;;;;;;63.42;29.13;;;;;;;;;;5094485;28;20446;-65
2022/01/11 07:30:32;;;;;;;57.05;27.70;;;;;;;;;;5076606;28;20035;-65
2022/01/11 07:32:59;;;;;;;47.97;25.10;;;;;;;;;;5076614;28;20093;-67
2022/01/11 07:35:25;;;;;;;49.30;24.13;;;;;;;;;;5085784;28;20059;-65
2022/01/11 07:37:52;;;;;;;45.28;22.63;;;;;;;;;;5113824;28;20024;-65
2022/01/11 07:40:19;;;;;;;51.92;27.20;;;;;;;;;;5115081;28;20016;-65
2022/01/11 07:42:45;;;;;;;102.38;50.70;;;;;;;;;;5115028;28;20055;-65
2022/01/11 07:45:11;;;;;;;149.85;66.57;;;;;;;;;;5114920;28;20028;-66
2022/01/11 07:47:38;;;;;;;59.00;27.88;;;;;;;;;;5114952;28;20082;-64
2022/01/11 07:50:06;;;;;;;62.45;30.40;;;;;;;;;;5114742;28;20067;-63
2022/01/11 07:52:32;;;;;;;75.47;37.42;;;;;;;;;;5115127;28;20067;-64
2022/01/11 07:54:59;;;;;;;73.00;39.15;;;;;;;;;;5114778;28;20027;-65
2022/01/11 07:57:25;;;;;;;63.28;32.38;;;;;;;;;;5096428;28;20543;-63
2022/01/11 07:59:51;;;;;;;53.90;28.60;;;;;;;;;;5114718;28;20427;-65
2022/01/11 08:02:17;;;;;;;70.20;35.35;;;;;;;;;;5114615;28;20038;-64
2022/01/11 08:04:43;;;;;;;60.88;30.23;;;;;;;;;;5096109;28;20071;-63
2022/01/11 08:07:11;;;;;;;65.78;31.33;;;;;;;;;;5095871;28;20543;-64
2022/01/11 08:09:37;;;;;;;73.65;33.83;;;;;;;;;;5095530;28;20023;-64
2022/01/11 08:12:03;;;;;;;79.72;37.20;;;;;;;;;;5095688;28;20127;-64
2022/01/11 08:14:30;;;;;;;102.53;45.63;;;;;;;;;;5111708;28;20031;-64
2022/01/11 08:16:57;;;;;;;90.65;39.80;;;;;;;;;;5095302;28;20024;-64
2022/01/11 08:19:25;;;;;;;78.85;33.85;;;;;;;;;;5095817;28;20348;-64
2022/01/11 08:21:58;;;;;;;84.63;33.65;;;;;;;;;;5114137;28;20034;-62
2022/01/11 08:24:24;;;;;;;65.90;30.25;;;;;;;;;;5095226;28;20110;-63
2022/01/11 08:26:52;;;;;;;61.60;27.73;;;;;;;;;;5114034;28;20542;-63
2022/01/11 08:29:19;;;;;;;109.22;39.05;;;;;;;;;;5113983;28;20031;-63
2022/01/11 08:31:47;;;;;;;105.53;40.38;;;;;;;;;;5113623;28;20030;-64
2022/01/11 08:34:14;;;;;;;101.40;44.28;;;;;;;;;;5113705;28;20098;-64
2022/01/11 08:36:45;;;;;;;105.95;45.13;;;;;;;;;;5113592;28;20555;-63
2022/01/11 08:39:12;;;;;;;91.37;40.17;;;;;;;;;;5113960;28;20032;-64
2022/01/11 08:41:38;;;;;;;70.00;35.95;;;;;;;;;;5113986;28;20055;-63
2022/01/11 08:44:05;;;;;;;81.47;41.58;;;;;;;;;;5095199;28;20036;-63
2022/01/11 08:46:31;;;;;;;77.07;40.47;;;;;;;;;;5113879;28;20538;-63
2022/01/11 08:48:58;;;;;;;53.38;27.42;;;;;;;;;;5095407;28;20413;-66
2022/01/11 08:51:25;;;;;;;48.92;25.60;;;;;;;;;;5113723;28;20111;-63
2022/01/11 08:53:51;;;;;;;54.85;28.45;;;;;;;;;;5113905;28;20046;-63
2022/01/11 08:56:17;;;;;;;80.50;42.40;;;;;;;;;;5095450;28;20059;-64
2022/01/11 08:58:44;;;;;;;70.80;37.47;;;;;;;;;;5113706;28;20462;-64
2022/01/11 09:01:10;;;;;;;112.15;58.28;;;;;;;;;;5113644;28;20028;-64
2022/01/11 09:03:36;;;;;;;108.63;52.67;;;;;;;;;;5113576;28;20107;-62
2022/01/11 09:06:07;;;;;;;59.97;31.02;;;;;;;;;;5095354;28;20032;-63
2022/01/11 09:08:33;;;;;;;68.55;35.17;;;;;;;;;;5095332;28;20114;-64
2022/01/11 09:10:59;;;;;;;60.95;29.98;;;;;;;;;;5113161;28;20455;-65
2022/01/11 09:13:26;;;;;;;76.70;35.80;;;;;;;;;;5094476;28;20434;-64
2022/01/11 09:15:53;;;;;;;52.75;27.95;;;;;;;;;;5095107;28;20777;-64
2022/01/11 09:18:20;;;;;;;57.22;30.90;;;;;;;;;;5113407;28;20024;-65
2022/01/11 09:20:46;;;;;;;76.63;39.17;;;;;;;;;;5113425;28;20027;-65
2022/01/11 09:23:12;;;;;;;50.40;25.70;;;;;;;;;;5095015;28;20072;-64
2022/01/11 09:25:38;;;;;;;56.70;31.27;;;;;;;;;;5113379;28;20024;-64
2022/01/11 09:28:04;;;;;;;39.38;21.75;;;;;;;;;;5113470;28;20090;-63
2022/01/11 09:30:31;;;;;;;37.53;18.33;;;;;;;;;;5113027;28;20024;-65
2022/01/11 09:32:57;;;;;;;35.40;19.55;;;;;;;;;;5113251;28;20116;-65
2022/01/11 09:35:23;;;;;;;45.50;22.15;;;;;;;;;;5094544;28;20653;-65
2022/01/11 09:37:50;;;;;;;41.95;21.65;;;;;;;;;;5113150;28;20081;-63
2022/01/11 09:40:17;;;;;;;55.50;28.35;;;;;;;;;;5113514;28;20047;-64
2022/01/11 09:42:44;;;;;;;53.88;30.17;;;;;;;;;;5113243;28;20019;-63
2022/01/11 09:45:11;;;;;;;60.13;33.42;;;;;;;;;;5113058;28;20035;-65
2022/01/11 09:47:41;;;;;;;56.70;26.90;;;;;;;;;;5094943;28;20024;-64
2022/01/11 09:50:08;;;;;;;113.65;44.17;;;;;;;;;;5112862;28;20441;-64
2022/01/11 09:52:36;;;;;;;72.05;34.33;;;;;;;;;;5113107;28;20066;-64
2022/01/11 09:55:04;;;;;;;63.33;30.58;;;;;;;;;;5112820;28;20455;-64
2022/01/11 09:57:30;;;;;;;53.25;26.25;;;;;;;;;;5113198;28;20107;-64
2022/01/11 09:59:57;;;;;;;38.50;20.70;;;;;;;;;;5112800;28;20032;-65
2022/01/11 10:02:23;;;;;;;40.35;20.80;;;;;;;;;;5113018;28;20084;-64
2022/01/11 10:04:55;;;;;;;64.47;29.92;;;;;;;;;;5094624;28;20091;-65
2022/01/11 10:07:28;;;;;;;41.47;21.98;;;;;;;;;;5094767;28;20487;-64
2022/01/11 10:09:55;;;;;;;44.70;23.55;;;;;;;;;;5113069;28;20144;-64
2022/01/11 10:12:22;;;;;;;42.83;20.48;;;;;;;;;;5113006;28;20039;-64
2022/01/11 10:14:50;;;;;;;39.42;19.83;;;;;;;;;;5094564;28;20059;-63
2022/01/11 10:17:24;;;;;;;53.63;22.40;;;;;;;;;;5112639;28;20524;-64
2022/01/11 10:19:54;;;;;;;41.22;21.42;;;;;;;;;;5112842;28;20375;-64
2022/01/11 10:22:21;;;;;;;39.10;20.73;;;;;;;;;;5112876;28;20024;-64
2022/01/11 10:24:52;;;;;;;40.35;19.85;;;;;;;;;;5112776;28;20030;-63
2022/01/11 10:27:23;;;;;;;39.17;19.65;;;;;;;;;;5113113;28;20456;-63
2022/01/11 10:29:50;;;;;;;44.60;22.60;;;;;;;;;;5114179;28;20362;-64
2022/01/11 10:32:22;;;;;;;46.03;24.35;;;;;;;;;;5097508;28;20055;-65
2022/01/11 10:34:51;;;;;;;42.40;19.90;;;;;;;;;;5115787;28;20056;-65
2022/01/11 10:37:27;;;;;;;42.35;21.65;;;;;;;;;;5116070;28;20031;-64
2022/01/11 10:40:00;;;;;;;40.30;22.15;;;;;;;;;;5116528;28;20066;-67
2022/01/11 10:42:33;;;;;;;38.97;20.92;;;;;;;;;;5115892;28;20110;-64
2022/01/11 10:45:02;;;;;;;36.88;17.67;;;;;;;;;;5115964;28;20053;-64
2022/01/11 10:47:31;;;;;;;34.20;18.60;;;;;;;;;;5116175;28;20571;-64
2022/01/11 10:50:04;;;;;;;35.75;18.48;;;;;;;;;;5115952;28;20114;-64
2022/01/11 10:52:32;;;;;;;154.25;66.63;;;;;;;;;;5115861;28;20061;-64
2022/01/11 10:54:59;;;;;;;99.75;58.50;;;;;;;;;;5116056;28;20055;-64
2022/01/11 10:57:27;;;;;;;57.33;40.15;;;;;;;;;;5115951;28;20084;-63
2022/01/11 11:00:09;;;;;;;195.73;98.15;;;;;;;;;;5097614;28;20055;-64
2022/01/11 11:02:35;;;;;;;;;;;;;;;;;;5115891;28;20392;-64
2022/01/11 11:05:11;;;;;;;165.88;82.03;;;;;;;;;;5115392;28;19959;-63
2022/01/11 11:07:37;;;;;;;98.35;55.65;;;;;;;;;;5115710;28;20063;-64
2022/01/11 11:10:03;;;;;;;97.28;54.08;;;;;;;;;;5115687;28;20034;-64
2022/01/11 11:12:30;;;;;;;331.42;144.70;;;;;;;;;;5115670;28;20032;-64
2022/01/11 11:14:57;;;;;;;124.13;64.18;;;;;;;;;;5115190;28;20475;-64
2022/01/11 11:17:29;;;;;;;73.70;37.65;;;;;;;;;;5115719;28;20463;-64
2022/01/11 11:20:09;;;;;;;76.45;40.35;;;;;;;;;;5115489;28;20058;-64
2022/01/11 11:22:35;;;;;;;52.60;24.48;;;;;;;;;;5115482;28;20034;-64
2022/01/11 11:25:02;;;;;;;50.42;27.13;;;;;;;;;;5110920;28;20040;-64
2022/01/11 11:27:31;;;;;;;49.15;24.50;;;;;;;;;;5115399;28;20019;-64
2022/01/11 11:29:58;;;;;;;54.30;26.83;;;;;;;;;;5115357;28;20028;-64
2022/01/11 11:32:25;;;;;;;47.95;26.05;;;;;;;;;;5115158;28;20059;-63
2022/01/11 11:34:51;;;;;;;42.65;22.73;;;;;;;;;;5096418;28;20445;-64
2022/01/11 11:37:35;;;;;;;58.92;28.25;;;;;;;;;;5115064;28;20081;-63
2022/01/11 11:40:04;;;;;;;65.20;30.27;;;;;;;;;;5096275;28;20034;-63
2022/01/11 11:42:31;;;;;;;60.17;31.77;;;;;;;;;;5115031;28;20020;-64
2022/01/11 11:44:59;;;;;;;67.63;30.90;;;;;;;;;;5096655;28;20035;-65
2022/01/11 11:47:30;;;;;;;76.65;37.13;;;;;;;;;;5115016;28;20031;-66
2022/01/11 11:49:57;;;;;;;52.47;26.50;;;;;;;;;;5114900;28;20140;-66
2022/01/11 11:52:24;;;;;;;100.53;39.67;;;;;;;;;;5096497;28;20442;-67
2022/01/11 11:54:50;;;;;;;78.07;33.47;;;;;;;;;;5114755;28;20020;-66
2022/01/11 11:57:17;;;;;;;75.60;33.10;;;;;;;;;;5096442;28;20022;-66
2022/01/11 11:59:50;;;;;;;71.00;36.50;;;;;;;;;;5096450;28;20073;-67
2022/01/11 12:02:30;;;;;;;100.32;41.40;;;;;;;;;;5114400;28;20379;-65
2022/01/11 12:04:56;;;;;;;72.50;29.75;;;;;;;;;;5114543;28;20034;-64
2022/01/11 12:07:38;;;;;;;75.28;33.88;;;;;;;;;;5114510;28;20020;-65
2022/01/11 12:10:06;;;;;;;59.35;25.25;;;;;;;;;;5114616;28;20460;-64
2022/01/11 12:12:39;;;;;;;97.65;51.65;;;;;;;;;;5114463;28;20023;-66
2022/01/11 12:15:23;;;;;;;85.18;41.50;;;;;;;;;;5114389;28;20035;-64
2022/01/11 12:18:09;;;;;;;61.95;31.42;;;;;;;;;;5114344;28;20023;-66
2022/01/11 12:20:42;;;;;;;58.70;28.13;;;;;;;;;;5113893;28;20059;-66
2022/01/11 12:23:10;;;;;;;45.65;23.15;;;;;;;;;;5095858;28;20471;-64
2022/01/11 12:25:42;;;;;;;50.88;24.27;;;;;;;;;;5114468;28;20100;-66
2022/01/11 12:28:15;;;;;;;51.55;24.77;;;;;;;;;;5113831;28;20041;-65
2022/01/11 12:30:41;;;;;;;54.70;27.35;;;;;;;;;;5114282;28;20023;-66
2022/01/11 12:33:22;;;;;;;51.58;25.80;;;;;;;;;;5095109;28;20059;-65
2022/01/11 12:36:02;;;;;;;45.83;22.90;;;;;;;;;;5113644;28;20475;-65
2022/01/11 12:38:33;;;;;;;42.08;22.27;;;;;;;;;;5095808;28;20031;-64
2022/01/11 12:41:20;;;;;;;48.05;24.17;;;;;;;;;;5113878;28;20376;-65
2022/01/11 12:43:56;;;;;;;98.57;47.42;;;;;;;;;;5078392;28;20036;-65
2022/01/11 12:46:22;;;;;;;54.53;27.15;;;;;;;;;;5113709;28;20027;-66
2022/01/11 12:48:54;;;;;;;49.67;24.40;;;;;;;;;;5095664;28;20482;-66
2022/01/11 12:51:22;;;;;;;53.10;26.45;;;;;;;;;;5113030;28;20030;-65
2022/01/11 12:53:48;;;;;;;48.55;24.13;;;;;;;;;;5095504;28;20464;-65
2022/01/11 12:56:14;;;;;;;54.13;25.02;;;;;;;;;;5113715;28;20024;-65
2022/01/11 12:58:41;;;;;;;52.65;27.27;;;;;;;;;;5095392;28;20030;-65
2022/01/11 13:01:20;;;;;;;50.13;24.30;;;;;;;;;;5113942;28;20411;-66
2022/01/11 13:03:55;;;;;;;44.35;23.33;;;;;;;;;;5113589;28;20039;-65
2022/01/11 13:06:22;;;;;;;48.45;24.50;;;;;;;;;;5113614;28;20055;-67
2022/01/11 13:08:52;;;;;;;46.50;23.27;;;;;;;;;;5113671;28;20472;-67
2022/01/11 13:11:19;;;;;;;90.90;41.80;;;;;;;;;;5113497;28;20176;-65
2022/01/11 13:13:54;;;;;;;57.60;28.38;;;;;;;;;;5113854;28;20073;-64
2022/01/11 13:16:21;;;;;;;50.28;25.55;;;;;;;;;;5111866;28;20020;-67
2022/01/11 13:18:47;;;;;;;55.20;27.20;;;;;;;;;;5112795;28;20456;-66
2022/01/11 13:21:13;;;;;;;52.55;27.60;;;;;;;;;;5113038;28;20020;-65
2022/01/11 13:23:59;;;;;;;62.78;28.92;;;;;;;;;;5095006;28;20493;-66
2022/01/11 13:26:28;;;;;;;62.40;30.52;;;;;;;;;;5113036;28;20043;-65
2022/01/11 13:28:56;;;;;;;56.63;27.30;;;;;;;;;;5094985;28;20027;-69
2022/01/11 13:31:22;;;;;;;53.38;24.83;;;;;;;;;;5112972;28;20076;-66
2022/01/11 13:33:51;;;;;;;52.60;25.73;;;;;;;;;;5095138;28;20070;-65
2022/01/11 13:36:20;;;;;;;77.00;32.38;;;;;;;;;;5091071;28;20073;-65
2022/01/11 13:38:59;;;;;;;81.28;35.90;;;;;;;;;;5091588;28;20028;-67
2022/01/11 13:41:37;;;;;;;192.32;84.45;;;;;;;;;;5091463;28;20064;-67
2022/01/11 13:44:08;;;;;;;73.30;36.20;;;;;;;;;;5092544;28;20483;-67
2022/01/11 13:46:44;;;;;;;88.68;39.22;;;;;;;;;;5092973;28;20064;-65
2022/01/11 13:49:25;;;;;;;54.30;25.75;;;;;;;;;;5093106;28;20031;-66
2022/01/11 13:51:56;;;;;;;57.70;28.92;;;;;;;;;;5092348;28;20414;-65
2022/01/11 13:54:23;;;;;;;52.03;29.00;;;;;;;;;;5092863;28;20028;-65
2022/01/11 13:56:50;;;;;;;64.82;32.08;;;;;;;;;;5091429;28;20284;-64
2022/01/11 13:59:26;;;;;;;47.35;25.95;;;;;;;;;;5091411;28;20016;-65
2022/01/11 14:02:07;;;;;;;45.28;22.88;;;;;;;;;;5093101;28;20027;-63
2022/01/11 14:04:38;;;;;;;50.60;24.48;;;;;;;;;;5096603;28;20032;-67
2022/01/11 14:07:16;;;;;;;47.67;26.13;;;;;;;;;;5096609;28;20114;-66
2022/01/11 14:09:49;;;;;;;52.92;25.70;;;;;;;;;;5096578;28;20012;-64
2022/01/11 14:12:22;;;;;;;61.20;27.05;;;;;;;;;;5096512;28;20021;-67
2022/01/11 14:15:15;;;;;;;47.65;23.90;;;;;;;;;;5096446;28;20035;-66
2022/01/11 14:17:42;;;;;;;64.53;29.08;;;;;;;;;;5093655;28;20118;-63
2022/01/11 14:20:28;;;;;;;63.45;28.27;;;;;;;;;;5096326;28;20020;-64
2022/01/11 14:22:59;;;;;;;62.67;25.42;;;;;;;;;;5094997;28;20093;-66